Time;durP1;ratioP1;P1;durP2;ratioP2;P2;SDS_P1;SDS_P2;PMS_P1;PMS_P2;Temp;Humidity;BMP_temperature;BMP_pressure;BME280_temperature;BME280_humidity;BME280_pressure;Samples;Min_cycle;Max_cycle;Signal;HPM_P1;HPM_P2
2023/10/17 00:01:00;;;;;;;22.07;13.57;;;;;;;7.04;63.67;95305.56;5069614;28;20174;-70
2023/10/17 00:03:26;;;;;;;20.00;11.87;;;;;;;7.04;63.79;95300.34;5069543;28;20187;-70
2023/10/17 00:05:56;;;;;;;21.27;12.10;;;;;;;7.04;63.11;95301.16;5069435;28;20181;-70
2023/10/17 00:08:21;;;;;;;23.73;11.03;;;;;;;7.01;63.36;95301.50;5069483;28;20162;-70
2023/10/17 00:10:47;;;;;;;21.70;13.13;;;;;;;7.04;63.52;95293.31;5068917;28;20797;-70
2023/10/17 00:13:31;;;;;;;39.93;15.47;;;;;;;7.01;63.87;95284.97;5069284;28;20181;-70
2023/10/17 00:15:58;;;;;;;23.53;13.47;;;;;;;7.07;63.79;95284.28;5069352;28;20166;-70
2023/10/17 00:18:25;;;;;;;28.80;16.95;;;;;;;6.94;64.30;95286.69;5068203;28;20575;-70
2023/10/17 00:20:52;;;;;;;30.93;14.47;;;;;;;6.90;63.75;95280.19;5069010;28;20253;-70
2023/10/17 00:23:22;;;;;;;34.63;15.97;;;;;;;7.01;64.19;95288.41;5067768;28;20620;-70
2023/10/17 00:25:52;;;;;;;25.57;14.57;;;;;;;7.03;63.82;95283.81;5069062;28;20178;-70
2023/10/17 00:28:20;;;;;;;19.90;12.33;;;;;;;7.07;63.70;95277.25;5069081;28;20207;-70
2023/10/17 00:30:48;;;;;;;19.02;11.70;;;;;;;6.98;63.50;95275.72;5068119;28;20406;-70
2023/10/17 00:33:15;;;;;;;21.63;12.20;;;;;;;6.52;64.66;95261.88;5067976;28;20490;-70
2023/10/17 00:35:48;;;;;;;23.90;12.67;;;;;;;6.69;64.71;95267.78;5049027;28;20167;-70
2023/10/17 00:38:15;;;;;;;17.70;9.70;;;;;;;6.86;64.53;95271.88;5048973;28;20595;-70
2023/10/17 00:40:51;;;;;;;13.97;8.60;;;;;;;6.87;63.85;95267.47;5049218;28;20182;-70
2023/10/17 00:43:17;;;;;;;22.17;12.80;;;;;;;6.77;64.07;95278.16;5048379;28;20825;-70
2023/10/17 00:45:47;;;;;;;15.50;9.90;;;;;;;6.82;64.04;95270.63;5049077;28;20185;-70
2023/10/17 00:48:20;;;;;;;13.87;7.87;;;;;;;6.84;64.20;95263.38;5049164;28;20171;-70
2023/10/17 00:50:47;;;;;;;15.57;7.90;;;;;;;6.89;63.89;95266.31;5048927;28;20650;-70
2023/10/17 00:53:13;;;;;;;13.23;7.37;;;;;;;6.93;63.26;95262.31;5048722;28;20262;-70
2023/10/17 00:55:40;;;;;;;11.63;6.00;;;;;;;6.95;63.04;95265.59;5048769;28;20290;-70
2023/10/17 00:58:06;;;;;;;11.68;6.38;;;;;;;6.86;62.56;95250.13;5047519;28;20529;-70
2023/10/17 01:00:40;;;;;;;8.00;5.57;;;;;;;6.95;62.76;95265.59;5048492;28;20175;-70
2023/10/17 01:03:13;;;;;;;12.57;6.13;;;;;;;6.87;62.63;95264.84;5048346;28;20568;-70
2023/10/17 01:09:08;;;;;;;16.25;6.82;;;;;;;6.87;62.99;95276.13;5035159;28;20439;-69
2023/10/17 01:11:38;;;;;;;12.50;6.47;;;;;;;6.69;63.24;95267.78;5026654;28;20241;-69
2023/10/17 01:14:05;;;;;;;11.70;6.40;;;;;;;6.68;63.37;95266.16;5039164;28;20186;-69
2023/10/17 01:16:34;;;;;;;12.67;6.57;;;;;;;6.63;63.37;95255.41;5048792;28;20712;-69
2023/10/17 01:19:04;;;;;;;10.70;5.83;;;;;;;6.70;63.44;95265.00;5048817;28;20171;-69
2023/10/17 01:21:30;;;;;;;8.37;3.97;;;;;;;6.70;63.20;95279.88;5048778;28;20215;-69
2023/10/17 01:23:56;;;;;;;7.97;3.80;;;;;;;6.62;62.89;95269.47;5064666;28;20544;-69
2023/10/17 01:26:23;;;;;;;7.50;3.23;;;;;;;6.61;63.35;95265.22;5068951;28;20178;-70
2023/10/17 01:28:50;;;;;;;8.02;4.03;;;;;;;6.61;63.09;95262.63;5067560;28;20413;-70
2023/10/17 01:31:22;;;;;;;8.60;3.77;;;;;;;6.39;63.80;95267.72;5068518;28;20186;-69
2023/10/17 01:33:50;;;;;;;10.48;6.32;;;;;;;6.32;64.52;95266.75;5067714;28;20905;-69
2023/10/17 01:36:16;;;;;;;13.03;8.17;;;;;;;6.33;64.66;95257.09;5068417;28;20864;-69
2023/10/17 01:38:42;;;;;;;13.93;7.77;;;;;;;6.38;64.59;95242.53;5068494;28;20262;-70
2023/10/17 01:41:10;;;;;;;15.43;7.37;;;;;;;6.40;64.28;95253.63;5068419;28;20171;-69
2023/10/17 01:43:40;;;;;;;12.43;7.03;;;;;;;6.35;64.92;95269.03;5069090;28;20402;-69
2023/10/17 01:46:11;;;;;;;13.90;7.93;;;;;;;6.35;64.94;95261.19;5072062;28;20175;-69
2023/10/17 01:48:37;;;;;;;13.77;7.10;;;;;;;6.46;64.76;95267.00;5072415;28;20622;-70
2023/10/17 01:51:06;;;;;;;13.47;6.87;;;;;;;6.39;65.10;95270.31;5072159;28;20182;-69
2023/10/17 01:53:35;;;;;;;10.47;5.93;;;;;;;6.47;64.93;95272.06;5072418;28;20198;-69
2023/10/17 01:56:13;;;;;;;10.13;5.33;;;;;;;6.53;64.81;95270.53;5071991;28;20653;-70
2023/10/17 01:58:38;;;;;;;11.40;5.33;;;;;;;6.60;64.68;95264.41;5071889;28;20181;-69
2023/10/17 02:01:10;;;;;;;7.87;5.10;;;;;;;6.64;64.39;95268.31;5072104;28;20171;-69
2023/10/17 02:03:36;;;;;;;5.80;3.60;;;;;;;6.69;63.81;95265.16;5071951;28;20178;-69
2023/10/17 02:06:05;;;;;;;6.13;3.50;;;;;;;6.72;63.92;95254.34;5071165;28;20414;-69
2023/10/17 02:08:32;;;;;;;5.40;3.33;;;;;;;6.69;63.90;95252.09;5071781;28;20162;-69
2023/10/17 02:10:57;;;;;;;7.57;3.50;;;;;;;6.74;63.43;95253.19;5071678;28;20178;-69
2023/10/17 02:13:23;;;;;;;6.73;3.57;;;;;;;6.78;63.33;95253.63;5059699;28;20407;-70
2023/10/17 02:15:50;;;;;;;5.68;3.53;;;;;;;6.74;63.69;95257.63;5050639;28;20439;-70
2023/10/17 02:18:16;;;;;;;9.43;5.60;;;;;;;6.56;64.21;95247.47;5050870;28;20431;-70
2023/10/17 02:20:49;;;;;;;10.20;5.63;;;;;;;6.70;63.98;95245.88;5051643;28;20189;-70
2023/10/17 02:23:25;;;;;;;16.00;5.40;;;;;;;6.84;63.54;95255.53;5051551;28;20245;-70
2023/10/17 02:25:52;;;;;;;10.13;5.27;;;;;;;6.90;63.56;95254.84;5051641;28;20634;-69
2023/10/17 02:28:17;;;;;;;10.90;4.50;;;;;;;6.85;63.53;95244.09;5051510;28;20556;-69
2023/10/17 02:30:45;;;;;;;10.50;4.07;;;;;;;6.71;63.88;95232.63;5051444;28;20417;-69
2023/10/17 02:33:16;;;;;;;7.27;4.70;;;;;;;6.83;63.78;95244.25;5051551;28;20273;-70
2023/10/17 02:35:53;;;;;;;9.13;4.40;;;;;;;6.74;63.81;95247.97;5051322;28;20171;-69
2023/10/17 02:38:20;;;;;;;8.00;3.97;;;;;;;6.71;63.82;95248.31;5051319;28;20569;-70
2023/10/17 02:40:53;;;;;;;6.93;3.60;;;;;;;6.54;64.29;95230.31;5051416;28;20183;-69
2023/10/17 02:43:18;;;;;;;7.73;3.83;;;;;;;6.63;64.49;95245.78;5051117;28;20214;-70
2023/10/17 02:45:43;;;;;;;9.43;4.03;;;;;;;6.65;64.28;95241.19;5054680;28;20271;-70
2023/10/17 02:48:25;;;;;;;7.87;3.50;;;;;;;6.65;64.65;95246.41;5071294;28;20170;-69
2023/10/17 02:51:01;;;;;;;6.73;3.33;;;;;;;6.61;64.77;95249.53;5071222;28;20208;-69
2023/10/17 02:53:34;;;;;;;9.60;4.30;;;;;;;6.54;65.50;95248.63;5069843;28;20429;-69
2023/10/17 02:56:18;;;;;;;12.07;3.70;;;;;;;6.55;65.12;95242.41;5070779;28;20171;-70
2023/10/17 02:59:04;;;;;;;4.73;3.37;;;;;;;6.62;64.95;95248.56;5070958;28;20174;-70
2023/10/17 03:01:31;;;;;;;8.17;3.53;;;;;;;6.54;64.91;95233.75;5070586;28;20175;-70
2023/10/17 03:03:59;;;;;;;9.43;4.17;;;;;;;6.67;64.79;95252.25;5070557;28;20170;-70
2023/10/17 03:06:24;;;;;;;8.27;4.73;;;;;;;6.72;65.12;95260.41;5060761;28;20233;-70
2023/10/17 03:08:51;;;;;;;9.17;4.37;;;;;;;6.80;65.01;95255.09;5049931;28;20977;-70
2023/10/17 03:11:26;;;;;;;10.87;4.30;;;;;;;6.80;65.31;95262.13;5050112;28;20178;-70
2023/10/17 03:13:52;;;;;;;6.03;3.57;;;;;;;6.91;65.11;95266.13;5062398;28;20221;-70
2023/10/17 03:16:25;;;;;;;7.05;3.63;;;;;;;6.94;65.52;95263.13;5069798;28;21942;-70
2023/10/17 03:18:51;;;;;;;8.13;4.20;;;;;;;7.05;65.29;95254.84;5069965;28;20196;-70
2023/10/17 03:21:19;;;;;;;7.07;4.03;;;;;;;7.13;64.48;95244.31;5070108;28;20236;-70
2023/10/17 03:23:49;;;;;;;6.60;4.10;;;;;;;7.10;64.66;95244.66;5070019;28;20174;-70
2023/10/17 03:26:18;;;;;;;10.63;5.63;;;;;;;7.10;64.75;95248.09;5070046;28;20177;-70
2023/10/17 03:28:45;;;;;;;12.87;6.30;;;;;;;7.17;64.48;95250.81;5070083;28;20875;-70
2023/10/17 03:31:11;;;;;;;13.00;7.77;;;;;;;7.25;64.83;95248.13;5070221;28;20179;-70
2023/10/17 03:33:40;;;;;;;18.00;9.43;;;;;;;7.16;64.54;95225.63;5070269;28;20178;-70
2023/10/17 03:36:06;;;;;;;15.77;8.37;;;;;;;7.33;64.73;95252.44;5050925;28;20932;-70
2023/10/17 03:38:36;;;;;;;12.27;6.87;;;;;;;7.38;64.75;95252.69;5049965;28;21105;-70
2023/10/17 03:41:23;;;;;;;11.07;5.47;;;;;;;7.38;64.41;95242.22;5049749;28;20175;-70
2023/10/17 03:43:54;;;;;;;8.27;4.00;;;;;;;7.44;64.10;95249.34;5049858;28;20163;-70
2023/10/17 03:46:25;;;;;;;7.20;3.97;;;;;;;7.34;64.66;95241.78;5050078;28;20256;-69
2023/10/17 03:48:57;;;;;;;7.33;3.63;;;;;;;7.45;64.54;95253.59;5049786;28;20548;-69
2023/10/17 03:51:26;;;;;;;8.73;4.10;;;;;;;7.39;64.50;95228.97;5049804;28;20179;-69
2023/10/17 03:54:06;;;;;;;8.13;4.57;;;;;;;7.48;64.62;95235.72;5049832;28;20178;-68
2023/10/17 03:56:36;;;;;;;6.07;3.73;;;;;;;7.63;64.01;95248.78;5059210;28;20681;-69
2023/10/17 04:01:41;;;;;;;7.53;4.00;;;;;;;7.60;63.57;95230.84;5069367;28;20178;-69
2023/10/17 04:04:08;;;;;;;11.23;3.63;;;;;;;7.78;64.01;95238.31;5069377;28;20178;-69
2023/10/17 04:06:40;;;;;;;8.23;3.50;;;;;;;7.85;63.15;95244.44;5069065;28;20261;-69
2023/10/17 04:09:17;;;;;;;11.43;5.03;;;;;;;7.87;63.13;95240.63;5069215;28;20261;-69
2023/10/17 04:11:46;;;;;;;11.30;5.50;;;;;;;7.93;62.84;95252.19;5069153;28;20193;-69
2023/10/17 04:14:12;;;;;;;14.93;6.63;;;;;;;7.92;63.03;95248.75;5069468;28;20205;-69
2023/10/17 04:16:43;;;;;;;15.60;7.30;;;;;;;7.91;62.93;95241.06;5069338;28;20229;-69
2023/10/17 04:19:18;;;;;;;17.93;8.20;;;;;;;7.84;62.74;95227.91;5051083;28;20170;-69
2023/10/17 04:24:35;;;;;;;13.67;7.10;;;;;;;7.84;63.06;95229.69;5049966;28;20265;-68
2023/10/17 04:29:34;;;;;;;36.03;5.67;;;;;;;7.82;62.98;95232.50;5055413;28;20181;-70
2023/10/17 04:32:01;;;;;;;10.90;5.93;;;;;;;7.91;64.07;95243.69;5069247;28;20174;-71
2023/10/17 04:34:28;;;;;;;5.83;3.30;;;;;;;7.93;63.74;95239.09;5069201;28;20182;-70
2023/10/17 04:36:56;;;;;;;10.30;3.93;;;;;;;7.86;63.30;95220.66;5069195;28;20669;-69
2023/10/17 04:39:48;;;;;;;9.97;3.53;;;;;;;7.97;63.50;95233.28;5068968;28;20221;-69
2023/10/17 04:42:19;;;;;;;5.63;3.00;;;;;;;7.94;63.57;95233.66;5069461;28;20171;-69
2023/10/17 04:44:51;;;;;;;5.17;2.90;;;;;;;8.01;63.49;95235.53;5069347;28;20253;-69
2023/10/17 04:49:55;;;;;;;18.00;3.40;;;;;;;8.02;63.64;95224.88;5069054;28;20540;-70
2023/10/17 04:52:28;;;;;;;11.07;3.40;;;;;;;8.15;63.44;95242.53;5065949;28;20598;-70
2023/10/17 04:54:54;;;;;;;15.83;5.43;;;;;;;8.21;63.64;95247.06;5049143;28;20191;-69
2023/10/17 04:57:21;;;;;;;8.13;5.67;;;;;;;8.15;63.54;95222.38;5048829;28;20255;-70
2023/10/17 06:18:26;;;;;;;3.43;2.50;;;;;;;14.22;54.17;95278.78;5071605;28;20735;-70
2023/10/17 06:34:18;;;;;;;4.47;2.57;;;;;;;12.03;59.80;95285.19;5071610;28;20177;-70
2023/10/17 06:36:45;;;;;;;7.63;2.70;;;;;;;11.70;60.68;95283.44;5071462;28;20232;-70
2023/10/17 06:39:18;;;;;;;6.80;2.50;;;;;;;11.92;60.39;95280.56;5071696;28;20182;-70
2023/10/17 06:41:47;;;;;;;3.87;2.30;;;;;;;11.93;60.25;95276.94;5071366;28;20178;-70
2023/10/17 06:44:22;;;;;;;5.40;2.33;;;;;;;11.87;60.21;95281.19;5070009;28;20564;-70
2023/10/17 06:46:56;;;;;;;5.87;2.00;;;;;;;11.84;60.71;95278.97;5071212;28;20196;-70
2023/10/17 06:54:41;;;;;;;3.63;2.70;;;;;;;11.37;61.81;95272.16;5070955;28;20170;-70
2023/10/17 06:57:19;;;;;;;5.60;2.50;;;;;;;10.99;62.90;95279.88;5070809;28;20668;-70
2023/10/17 06:59:52;;;;;;;4.43;2.03;;;;;;;11.06;63.08;95272.81;5070815;28;20174;-70
2023/10/17 07:02:28;;;;;;;9.03;2.80;;;;;;;11.16;62.59;95277.63;5070716;28;20179;-70
2023/10/17 07:05:01;;;;;;;4.93;2.23;;;;;;;11.14;62.61;95277.88;5070709;28;20264;-70
2023/10/17 07:07:40;;;;;;;8.07;2.80;;;;;;;11.28;62.53;95271.56;5070632;28;20171;-70
2023/10/17 07:10:16;;;;;;;5.93;2.53;;;;;;;11.26;62.47;95270.13;5070546;28;20205;-70
2023/10/17 07:12:43;;;;;;;5.23;2.13;;;;;;;11.18;62.50;95259.81;5070628;28;20239;-70
2023/10/17 07:15:13;;;;;;;5.60;2.50;;;;;;;11.18;62.84;95263.25;5070452;28;20174;-70
2023/10/17 07:17:48;;;;;;;2.50;2.30;;;;;;;11.12;62.76;95256.16;5070903;28;20953;-70
2023/10/17 07:20:29;;;;;;;37.70;4.90;;;;;;;10.93;63.30;95247.25;5070463;28;20235;-70
2023/10/17 07:22:57;;;;;;;5.67;3.10;;;;;;;11.11;63.61;95259.00;5049979;28;20266;-70
2023/10/17 07:25:22;;;;;;;6.87;2.30;;;;;;;11.13;62.79;95225.38;5050219;28;20580;-69
2023/10/17 07:27:49;;;;;;;6.57;2.50;;;;;;;11.43;62.33;95242.31;5050834;28;20203;-70
2023/10/17 07:30:24;;;;;;;3.53;2.67;;;;;;;11.70;61.34;95256.25;5053828;28;20181;-69
2023/10/17 07:32:54;;;;;;;3.67;2.57;;;;;;;11.76;61.06;95259.94;5070308;28;20170;-70
2023/10/17 07:35:30;;;;;;;15.83;2.33;;;;;;;11.71;60.78;95252.59;5062677;28;20942;-70
2023/10/17 07:37:56;;;;;;;5.20;2.40;;;;;;;11.83;60.69;95242.25;5049675;28;20202;-70
2023/10/17 07:43:07;;;;;;;6.60;2.10;;;;;;;11.80;60.50;95248.75;5046997;28;20222;-70
2023/10/17 07:45:38;;;;;;;7.77;1.97;;;;;;;11.81;60.07;95242.47;5050076;28;20183;-69
2023/10/17 07:48:19;;;;;;;7.07;1.90;;;;;;;11.70;60.45;95238.59;5065496;28;20186;-70
2023/10/17 07:50:46;;;;;;;3.27;2.00;;;;;;;11.80;60.17;95242.66;5054605;28;20173;-69
2023/10/17 07:53:11;;;;;;;6.40;2.70;;;;;;;11.75;59.88;95242.50;5062266;28;20197;-69
2023/10/17 07:55:38;;;;;;;7.63;2.13;;;;;;;11.72;60.31;95249.75;5062191;28;20182;-70
2023/10/17 07:58:06;;;;;;;7.17;1.90;;;;;;;11.64;60.03;95238.63;5051452;28;20234;-70
2023/10/17 08:00:36;;;;;;;8.80;2.00;;;;;;;11.62;59.66;95236.19;5064228;28;20198;-69
2023/10/17 08:03:15;;;;;;;5.20;2.03;;;;;;;11.65;60.11;95246.34;5057130;28;20171;-70
2023/10/17 08:08:33;;;;;;;7.17;2.57;;;;;;;11.68;59.78;95240.63;5051807;28;20232;-70
2023/10/17 08:11:07;;;;;;;2.80;2.10;;;;;;;11.68;59.44;95237.19;5059943;28;20171;-70
2023/10/17 08:13:33;;;;;;;4.00;2.30;;;;;;;11.64;59.44;95241.28;5061127;28;20171;-70
2023/10/17 08:16:06;;;;;;;3.63;1.83;;;;;;;11.68;58.52;95251.19;5052178;28;20642;-70
2023/10/17 08:18:40;;;;;;;2.47;2.03;;;;;;;11.53;58.17;95242.72;5050957;28;20187;-69
2023/10/17 08:23:50;;;;;;;1.47;1.37;;;;;;;11.56;58.20;95247.59;5048925;28;20186;-69
2023/10/17 08:26:20;;;;;;;2.30;1.60;;;;;;;11.64;58.20;95236.00;5048624;28;20171;-70
2023/10/17 08:31:35;;;;;;;10.07;1.90;;;;;;;11.83;57.92;95234.34;5046453;28;20174;-70
2023/10/17 08:36:41;;;;;;;2.50;1.97;;;;;;;12.06;57.21;95237.28;5048576;28;20167;-70
2023/10/17 08:42:29;;;;;;;8.40;2.30;;;;;;;12.17;57.18;95227.91;5048813;28;20175;-69
2023/10/17 08:44:57;;;;;;;5.97;1.80;;;;;;;12.24;57.21;95228.66;5048782;28;20177;-70
2023/10/17 08:47:25;;;;;;;2.30;1.60;;;;;;;12.22;56.60;95228.88;5048577;28;20166;-70
2023/10/17 08:49:54;;;;;;;5.03;1.90;;;;;;;12.13;57.05;95235.41;5049179;28;20229;-69
2023/10/17 08:52:28;;;;;;;3.87;1.70;;;;;;;12.16;57.01;95231.56;5048970;28;20206;-69
2023/10/17 08:54:57;;;;;;;6.10;2.20;;;;;;;12.32;56.02;95241.63;5049286;28;20175;-70
2023/10/17 08:57:23;;;;;;;1.87;1.67;;;;;;;12.34;55.93;95234.28;5049033;28;20305;-70
2023/10/17 09:05:00;;;;;;;4.53;1.80;;;;;;;12.51;55.45;95238.06;5049174;28;20595;-70
2023/10/17 09:07:41;;;;;;;2.73;2.27;;;;;;;12.55;55.41;95230.50;5049048;28;20195;-70
2023/10/17 09:10:18;;;;;;;4.70;1.60;;;;;;;12.47;55.66;95234.19;5049044;28;20219;-70
2023/10/17 09:12:43;;;;;;;4.67;1.90;;;;;;;12.54;55.68;95218.34;5048878;28;20187;-70
2023/10/17 09:15:29;;;;;;;5.23;2.30;;;;;;;12.53;55.70;95214.06;5048946;28;20178;-70
2023/10/17 09:18:07;;;;;;;4.50;2.00;;;;;;;12.56;55.56;95200.41;5048715;28;20199;-69
2023/10/17 09:20:39;;;;;;;5.57;1.80;;;;;;;12.50;55.50;95188.09;5047762;28;20179;-69
2023/10/17 09:23:26;;;;;;;5.27;2.40;;;;;;;12.62;55.94;95200.41;5042692;28;20270;-71
2023/10/17 09:26:01;;;;;;;4.63;1.80;;;;;;;12.78;55.18;95197.22;5043170;28;20175;-70
2023/10/17 09:28:28;;;;;;;9.20;2.07;;;;;;;12.81;54.25;95209.16;5046651;28;20178;-69
2023/10/17 09:31:08;;;;;;;2.87;1.80;;;;;;;12.80;54.39;95192.50;5045759;28;20183;-69
2023/10/17 09:33:43;;;;;;;3.97;2.30;;;;;;;12.92;54.64;95195.25;5047432;28;20174;-69
2023/10/17 09:36:09;;;;;;;3.33;1.87;;;;;;;12.84;53.92;95191.06;5046894;28;20174;-69
2023/10/17 09:38:41;;;;;;;2.63;1.60;;;;;;;12.69;53.82;95172.09;5047509;28;20230;-70
2023/10/17 09:41:08;;;;;;;8.30;1.93;;;;;;;12.61;54.46;95172.38;5047992;28;20179;-69
2023/10/17 09:43:36;;;;;;;2.23;1.93;;;;;;;12.70;54.89;95183.47;5050405;28;20567;-70
2023/10/17 09:46:03;;;;;;;3.63;2.53;;;;;;;12.75;54.83;95183.63;5047360;28;21004;-70
2023/10/17 09:48:36;;;;;;;2.00;1.80;;;;;;;12.84;54.83;95179.69;5047913;28;20518;-70
2023/10/17 09:51:05;;;;;;;5.00;2.80;;;;;;;13.00;53.58;95171.19;5046448;28;20167;-71
2023/10/17 09:53:32;;;;;;;4.60;1.73;;;;;;;13.03;53.45;95183.19;5062544;28;20178;-71
2023/10/17 09:56:16;;;;;;;6.07;1.83;;;;;;;12.82;53.71;95160.59;5053551;28;20179;-71
2023/10/17 09:58:47;;;;;;;6.00;1.70;;;;;;;12.76;53.76;95175.50;5045903;28;20233;-71
2023/10/17 10:01:20;;;;;;;3.60;1.90;;;;;;;12.77;54.77;95171.81;5047947;28;20618;-70
2023/10/17 10:03:56;;;;;;;3.50;1.93;;;;;;;12.80;54.38;95160.00;5046819;28;20690;-72
2023/10/17 10:06:32;;;;;;;2.13;1.60;;;;;;;12.91;53.58;95172.50;5051627;28;20282;-71
2023/10/17 10:09:01;;;;;;;9.10;2.60;;;;;;;12.89;54.15;95166.63;5051567;28;20183;-72
2023/10/17 10:12:00;;;;;;;3.87;1.73;;;;;;;12.87;54.08;95163.41;5051515;28;20191;-71
2023/10/17 10:14:26;;;;;;;18.13;3.20;;;;;;;12.96;53.46;95161.31;5027770;28;20716;-71
2023/10/17 10:17:03;;;;;;;6.87;2.10;;;;;;;13.01;53.61;95156.97;5051181;28;20289;-71
2023/10/17 10:19:40;;;;;;;2.63;1.73;;;;;;;13.03;53.30;95162.03;5051145;28;20225;-71
2023/10/17 10:22:07;;;;;;;5.93;2.33;;;;;;;12.85;53.50;95154.88;5051476;28;20171;-71
2023/10/17 10:24:34;;;;;;;5.80;1.63;;;;;;;12.83;53.66;95151.66;5051315;28;20684;-71
2023/10/17 10:27:15;;;;;;;3.93;2.10;;;;;;;12.95;53.92;95149.91;5051346;28;20576;-71
2023/10/17 10:29:45;;;;;;;7.43;2.50;;;;;;;13.02;53.84;95152.50;5051059;28;20300;-71
2023/10/17 10:32:25;;;;;;;2.30;2.10;;;;;;;12.98;53.35;95149.47;5051094;28;20179;-71
2023/10/17 10:34:52;;;;;;;2.83;1.83;;;;;;;13.02;53.60;95147.22;5050928;28;20292;-71
2023/10/17 10:37:20;;;;;;;2.50;1.60;;;;;;;13.01;53.59;95151.69;5050716;28;20210;-71
2023/10/17 10:40:10;;;;;;;3.87;2.03;;;;;;;13.09;53.58;95145.28;5050738;28;20167;-71
2023/10/17 10:42:44;;;;;;;3.17;1.97;;;;;;;13.15;53.75;95147.09;5050798;28;20175;-71
2023/10/17 10:45:24;;;;;;;3.90;2.00;;;;;;;13.36;53.12;95146.66;5049398;28;20244;-71
2023/10/17 10:47:57;;;;;;;3.20;2.07;;;;;;;13.45;52.93;95148.00;5050658;28;20552;-71
2023/10/17 10:50:27;;;;;;;7.67;2.77;;;;;;;13.48;53.26;95147.56;5050596;28;20176;-71
2023/10/17 10:52:52;;;;;;;17.57;2.57;;;;;;;13.57;52.46;95140.94;5050789;28;20183;-71
2023/10/17 10:55:20;;;;;;;2.60;2.00;;;;;;;13.58;52.10;95136.44;5049089;28;20179;-71
2023/10/17 10:57:46;;;;;;;6.10;2.60;;;;;;;13.46;51.87;95115.22;5050558;28;20215;-71
2023/10/17 11:00:15;;;;;;;4.53;2.17;;;;;;;13.40;52.13;95117.97;5050408;28;20286;-71
2023/10/17 11:02:42;;;;;;;5.77;2.00;;;;;;;13.45;51.87;95133.97;5050679;28;20195;-71
2023/10/17 11:05:10;;;;;;;3.37;1.80;;;;;;;13.41;51.92;95127.47;5050641;28;20588;-71
2023/10/17 11:07:36;;;;;;;5.30;1.90;;;;;;;13.49;51.90;95124.56;5050421;28;20171;-71
2023/10/17 11:10:17;;;;;;;7.20;2.10;;;;;;;13.46;51.96;95111.78;5050073;28;20194;-71
2023/10/17 11:12:52;;;;;;;6.90;2.57;;;;;;;13.38;51.79;95099.66;5050103;28;20536;-71
2023/10/17 11:15:27;;;;;;;4.40;2.90;;;;;;;13.42;51.67;95087.59;5050296;28;20174;-71
2023/10/17 11:18:08;;;;;;;14.07;2.07;;;;;;;13.34;52.24;95101.13;5049810;28;20190;-71
2023/10/17 11:20:35;;;;;;;2.47;1.70;;;;;;;13.44;52.14;95103.25;5050058;28;20185;-71
2023/10/17 11:23:07;;;;;;;7.60;2.00;;;;;;;13.48;51.58;95101.78;5050203;28;20177;-70
2023/10/17 11:25:34;;;;;;;5.57;1.80;;;;;;;13.46;51.71;95095.91;5050494;28;20175;-70
2023/10/17 11:28:06;;;;;;;4.03;1.73;;;;;;;13.34;51.95;95093.19;5050630;28;20600;-70
2023/10/17 11:30:36;;;;;;;3.13;2.07;;;;;;;13.20;52.23;95083.81;5050632;28;20606;-70
2023/10/17 11:33:05;;;;;;;3.93;1.97;;;;;;;13.18;52.63;95077.94;5050452;28;20167;-70
2023/10/17 11:35:34;;;;;;;5.57;1.77;;;;;;;13.28;53.29;95067.66;5050213;28;20229;-69
2023/10/17 11:38:01;;;;;;;4.87;1.77;;;;;;;13.29;52.82;95066.63;5049621;28;20184;-70
2023/10/17 11:40:39;;;;;;;4.10;2.00;;;;;;;13.30;53.04;95064.78;5049221;28;20175;-69
2023/10/17 11:43:28;;;;;;;4.07;1.73;;;;;;;13.29;52.91;95068.47;5049573;28;20174;-69
2023/10/17 11:45:54;;;;;;;5.97;2.10;;;;;;;13.26;52.99;95063.59;5048455;28;20228;-69
2023/10/17 11:48:36;;;;;;;2.87;2.20;;;;;;;13.31;52.85;95056.63;5049568;28;20175;-71
2023/10/17 11:51:07;;;;;;;6.60;1.97;;;;;;;13.16;52.64;95035.84;5049376;28;20309;-71
2023/10/17 11:53:34;;;;;;;9.10;2.10;;;;;;;13.20;52.95;95046.81;5049391;28;20175;-71
2023/10/17 11:56:01;;;;;;;3.53;2.37;;;;;;;13.23;53.53;95049.00;5048922;28;20324;-71
2023/10/17 11:58:29;;;;;;;3.17;2.17;;;;;;;13.33;53.55;95045.81;5049313;28;20195;-70
2023/10/17 12:00:55;;;;;;;7.40;2.80;;;;;;;13.23;54.33;95044.50;5049650;28;20179;-70
2023/10/17 12:03:21;;;;;;;8.57;2.47;;;;;;;13.21;54.74;95054.50;5049278;28;20170;-70
2023/10/17 12:05:47;;;;;;;3.23;2.20;;;;;;;13.20;55.04;95041.50;5047987;28;20179;-71
2023/10/17 12:08:22;;;;;;;3.73;2.50;;;;;;;13.06;54.57;95038.19;5068531;28;20251;-71
2023/10/17 12:10:53;;;;;;;3.80;1.90;;;;;;;13.22;54.46;95042.09;5068940;28;20181;-71
2023/10/17 12:13:18;;;;;;;4.47;2.50;;;;;;;13.12;54.27;95047.88;5068932;28;20645;-71
2023/10/17 12:15:45;;;;;;;3.43;1.90;;;;;;;13.12;54.33;95041.78;5068789;28;20170;-71
2023/10/17 12:18:12;;;;;;;2.63;2.10;;;;;;;13.10;54.06;95047.28;5068627;28;20262;-71
2023/10/17 12:20:49;;;;;;;8.87;2.37;;;;;;;13.08;54.49;95040.59;5068977;28;20261;-71
2023/10/17 12:23:14;;;;;;;8.47;2.60;;;;;;;13.12;54.73;95037.31;5068687;28;20226;-71
2023/10/17 12:25:42;;;;;;;6.23;2.40;;;;;;;13.12;54.59;95026.75;5068875;28;20166;-71
2023/10/17 12:28:08;;;;;;;7.83;2.47;;;;;;;13.19;54.93;95032.78;5068480;28;20208;-71
2023/10/17 12:30:39;;;;;;;5.10;2.20;;;;;;;13.32;55.01;95036.28;5068758;28;20174;-71
2023/10/17 12:33:05;;;;;;;2.80;2.10;;;;;;;13.30;54.61;95043.63;5068882;28;20170;-71
2023/10/17 12:35:31;;;;;;;8.80;2.73;;;;;;;13.19;54.87;95037.25;5068671;28;20174;-71
2023/10/17 12:38:06;;;;;;;7.23;2.67;;;;;;;13.04;55.08;95018.31;5068604;28;20233;-71
2023/10/17 12:40:32;;;;;;;3.13;2.43;;;;;;;13.02;55.11;95023.81;5068504;28;20648;-71
2023/10/17 12:42:57;;;;;;;6.87;2.47;;;;;;;13.17;55.06;95036.66;5068480;28;20185;-71
2023/10/17 12:45:24;;;;;;;2.97;1.90;;;;;;;13.22;54.58;95039.47;5068333;28;20179;-71
2023/10/17 12:47:49;;;;;;;5.38;2.42;;;;;;;13.28;54.85;95029.81;5067466;28;20500;-71
2023/10/17 12:50:18;;;;;;;7.53;2.42;;;;;;;13.39;54.74;95037.00;5068032;28;20548;-71
2023/10/17 12:52:43;;;;;;;4.45;2.45;;;;;;;13.37;54.52;95024.00;5067809;28;20477;-71
2023/10/17 12:55:11;;;;;;;4.10;2.43;;;;;;;13.58;53.95;95035.91;5068083;28;20950;-71
2023/10/17 12:57:38;;;;;;;5.00;2.77;;;;;;;13.66;53.81;95040.91;5068006;28;20222;-71
2023/10/17 13:00:09;;;;;;;5.82;2.50;;;;;;;13.62;53.34;95036.28;5067134;28;20414;-71
2023/10/17 13:02:38;;;;;;;4.77;2.23;;;;;;;13.44;53.83;95037.13;5068286;28;20181;-71
2023/10/17 13:05:09;;;;;;;3.53;2.13;;;;;;;13.58;53.70;95033.28;5067442;28;20954;-71
2023/10/17 13:07:35;;;;;;;4.80;2.20;;;;;;;13.66;53.83;95035.63;5068272;28;20167;-71
2023/10/17 13:10:00;;;;;;;9.32;2.25;;;;;;;13.56;53.55;95030.06;5067165;28;20456;-71
2023/10/17 13:12:26;;;;;;;6.37;2.70;;;;;;;13.66;54.24;95027.69;5068257;28;20178;-70
2023/10/17 13:14:51;;;;;;;4.68;2.47;;;;;;;13.70;53.93;95025.38;5067934;28;20808;-70
2023/10/17 13:17:18;;;;;;;6.10;2.73;;;;;;;13.68;54.01;95030.91;5067086;28;20931;-70
2023/10/17 13:19:45;;;;;;;2.43;1.93;;;;;;;13.36;55.11;95011.81;5068050;28;20176;-70
2023/10/17 13:22:16;;;;;;;6.95;2.25;;;;;;;13.21;55.79;95029.91;5063261;28;20416;-70
2023/10/17 13:24:43;;;;;;;8.13;2.88;;;;;;;13.07;56.67;95029.22;5048175;28;20736;-70
2023/10/17 13:27:09;;;;;;;7.07;3.28;;;;;;;13.03;57.29;95028.06;5048736;28;20409;-70
2023/10/17 13:29:34;;;;;;;13.10;3.10;;;;;;;12.94;57.65;95031.22;5048838;28;20559;-70
2023/10/17 13:32:00;;;;;;;7.77;2.87;;;;;;;12.92;58.46;95026.16;5047988;28;20404;-70
2023/10/17 13:34:27;;;;;;;3.93;2.57;;;;;;;12.77;58.00;95012.50;5048794;28;20210;-70
2023/10/17 13:36:53;;;;;;;5.07;2.20;;;;;;;12.89;57.94;95026.59;5047580;28;20922;-70
2023/10/17 13:39:22;;;;;;;4.90;2.47;;;;;;;12.91;57.69;95031.66;5047576;28;20442;-70
2023/10/17 13:41:48;;;;;;;4.27;2.33;;;;;;;13.00;57.89;95027.69;5052475;28;20191;-70
2023/10/17 13:44:15;;;;;;;6.18;2.95;;;;;;;12.94;57.54;95004.81;5051739;28;20461;-70
2023/10/17 13:46:41;;;;;;;4.50;2.53;;;;;;;13.06;57.77;95024.19;5052280;28;20167;-70
2023/10/17 13:49:08;;;;;;;5.27;2.53;;;;;;;13.00;57.64;95017.94;5052222;28;20171;-70
2023/10/17 13:51:34;;;;;;;11.02;2.97;;;;;;;12.91;57.79;95023.72;5051153;28;20399;-70
2023/10/17 13:54:00;;;;;;;4.60;2.50;;;;;;;12.80;58.07;95019.97;5050272;28;20410;-70
2023/10/17 13:56:27;;;;;;;3.63;2.03;;;;;;;12.88;57.51;95025.00;5068890;28;20430;-70
2023/10/17 13:58:53;;;;;;;3.70;2.40;;;;;;;12.77;58.28;95012.50;5052212;28;20953;-70
2023/10/17 14:01:28;;;;;;;7.23;2.53;;;;;;;12.88;58.38;95030.28;5051946;28;20403;-70